Bernalillo, New Mexico
Current Conditions -  °F | °C
As of 4:52 AM on Friday 19 Dec 2014 (Local Time) from KABQ Reporting Station
Clear Clear  
Wind Chill: 28°   Ceiling: Unl
Heat Index: 33°   Visibility: 10mi
Dew Point: 26°   Wind: 6mph
Humidity: 75%   Direction: 350°N
Pressure: 30.17"   Gusts: NA
Location:  35.3°N, 106.54°W
Report Text: KABQ 191152Z 35005KT 10SM CLR 01/M03 A3017 RMK AO2 SLP212 T00061033 10022 21006 50001
Loading
Personal Weather Stations






























Interactive Weather Map New forecast layout! Learn more

10-Day Weather Forecast

Advertisements
Track Severe Weather on mobile